Time;durP1;ratioP1;P1;durP2;ratioP2;P2;SDS_P1;SDS_P2;PMS_P1;PMS_P2;Temp;Humidity;BMP_temperature;BMP_pressure;BME280_temperature;BME280_humidity;BME280_pressure;Samples;Min_cycle;Max_cycle;Signal;HPM_P1;HPM_P2
2021/05/29 00:01:29;;;;;;;11.47;2.07;;;12.60;94.70;;;;;;5032475;28;20177;-70
2021/05/29 00:03:56;;;;;;;8.57;2.10;;;12.70;94.80;;;;;;5030631;28;20185;-73
2021/05/29 00:06:23;;;;;;;6.63;1.53;;;12.80;94.70;;;;;;5030669;28;20611;-72
2021/05/29 00:08:51;;;;;;;5.00;1.60;;;13.00;94.50;;;;;;5032364;28;20185;-70
2021/05/29 00:11:19;;;;;;;3.47;1.20;;;13.10;94.40;;;;;;5032060;28;20195;-71
2021/05/29 00:13:46;;;;;;;4.40;1.67;;;13.20;94.20;;;;;;5044281;28;20551;-69
2021/05/29 00:16:14;;;;;;;8.20;2.40;;;13.20;94.50;;;;;;5025965;28;20176;-68
2021/05/29 00:18:42;;;;;;;4.73;1.40;;;13.40;94.40;;;;;;5030362;28;20168;-71
2021/05/29 00:21:09;;;;;;;6.57;1.80;;;13.40;94.10;;;;;;5028516;28;20173;-69
2021/05/29 00:23:36;;;;;;;3.50;1.20;;;13.60;94.20;;;;;;5031832;28;20188;-68
2021/05/29 00:26:04;;;;;;;4.07;1.40;;;13.80;94.20;;;;;;5032100;28;20189;-69
2021/05/29 00:28:32;;;;;;;6.80;1.23;;;14.10;94.00;;;;;;5031009;28;20186;-67
2021/05/29 00:30:59;;;;;;;4.33;1.63;;;14.30;93.90;;;;;;5031580;28;20223;-69
2021/05/29 00:33:27;;;;;;;3.73;1.47;;;14.40;93.40;;;;;;5030322;28;20184;-69
2021/05/29 00:35:55;;;;;;;5.27;1.63;;;14.30;93.80;;;;;;5027241;28;20283;-70
2021/05/29 00:38:22;;;;;;;11.83;1.63;;;14.60;94.00;;;;;;5030044;28;20256;-72
2021/05/29 00:40:50;;;;;;;9.33;1.67;;;14.80;93.80;;;;;;5030123;28;20180;-71
2021/05/29 00:43:17;;;;;;;14.03;3.30;;;14.90;93.70;;;;;;5030774;28;20208;-72
2021/05/29 00:45:45;;;;;;;10.07;2.70;;;14.90;93.80;;;;;;5031738;28;20230;-72
2021/05/29 00:48:12;;;;;;;5.93;1.53;;;14.90;93.80;;;;;;5031747;28;20177;-67
2021/05/29 00:50:48;;;;;;;9.07;2.00;;;15.00;93.60;;;;;;5031346;28;20252;-71
2021/05/29 00:53:19;;;;;;;6.10;2.00;;;15.10;93.70;;;;;;5030881;28;20185;-69
2021/05/29 00:55:47;;;;;;;14.93;3.47;;;15.10;93.70;;;;;;5032199;28;20534;-71
2021/05/29 00:58:15;;;;;;;7.00;1.73;;;15.30;93.60;;;;;;5032623;28;20237;-69
2021/05/29 01:00:42;;;;;;;12.67;1.70;;;15.10;93.30;;;;;;5044860;28;20267;-70
2021/05/29 01:03:10;;;;;;;15.50;3.70;;;15.10;93.40;;;;;;5044936;28;20180;-69
2021/05/29 01:05:38;;;;;;;9.67;2.53;;;15.10;93.60;;;;;;5034914;28;20176;-68
2021/05/29 01:08:06;;;;;;;8.83;1.77;;;15.40;93.60;;;;;;5035573;28;20232;-70
2021/05/29 01:10:34;;;;;;;11.63;2.77;;;15.30;93.30;;;;;;5034647;28;20239;-72
2021/05/29 01:13:03;;;;;;;8.83;3.00;;;15.60;93.00;;;;;;5034799;28;20520;-69
2021/05/29 01:15:40;;;;;;;9.37;2.47;;;15.60;93.30;;;;;;5035359;28;20588;-72
2021/05/29 01:18:10;;;;;;;9.50;2.03;;;15.70;92.80;;;;;;5038139;28;20188;-70
2021/05/29 01:20:38;;;;;;;7.67;2.30;;;15.90;92.80;;;;;;5033039;28;20232;-73
2021/05/29 01:23:07;;;;;;;7.30;1.70;;;15.80;92.60;;;;;;5032722;28;20187;-74
2021/05/29 01:25:39;;;;;;;10.63;1.93;;;15.90;92.90;;;;;;5031224;28;20191;-68
2021/05/29 01:28:15;;;;;;;5.17;1.70;;;15.90;92.70;;;;;;5034374;28;20194;-73
2021/05/29 01:30:47;;;;;;;9.17;2.30;;;15.70;92.50;;;;;;5034403;28;20632;-72
2021/05/29 01:33:23;;;;;;;10.90;1.73;;;15.70;92.40;;;;;;5034556;28;20177;-72
2021/05/29 01:35:53;;;;;;;9.27;1.60;;;15.60;92.70;;;;;;5034743;28;20300;-72
2021/05/29 01:38:22;;;;;;;9.27;2.30;;;15.80;92.70;;;;;;5034590;28;20217;-74
2021/05/29 01:40:50;;;;;;;8.43;2.63;;;15.90;92.50;;;;;;5034484;28;20489;-73
2021/05/29 01:43:19;;;;;;;10.17;2.10;;;15.90;92.60;;;;;;5034365;28;20185;-76
2021/05/29 01:45:46;;;;;;;7.67;1.93;;;15.90;92.60;;;;;;5034147;28;20251;-73
2021/05/29 01:48:17;;;;;;;9.07;2.03;;;15.80;92.50;;;;;;5034221;28;20180;-72
2021/05/29 01:50:49;;;;;;;9.33;2.40;;;15.80;92.90;;;;;;5032037;28;20213;-70
2021/05/29 01:53:18;;;;;;;12.80;2.03;;;15.80;92.80;;;;;;5032761;28;20234;-68
2021/05/29 01:55:47;;;;;;;8.30;1.90;;;16.20;92.60;;;;;;5033666;28;20220;-71
2021/05/29 01:58:16;;;;;;;12.97;2.10;;;16.70;91.80;;;;;;5033325;28;20543;-74
2021/05/29 02:00:43;;;;;;;8.07;1.57;;;16.70;91.80;;;;;;5034713;28;20214;-70
2021/05/29 02:03:11;;;;;;;10.53;2.20;;;16.30;91.80;;;;;;5034383;28;20283;-71
2021/05/29 02:05:39;;;;;;;7.87;1.60;;;16.20;92.00;;;;;;5033167;28;20183;-73
2021/05/29 02:08:08;;;;;;;7.37;1.77;;;16.30;92.10;;;;;;5034499;28;20177;-69
2021/05/29 02:10:39;;;;;;;7.20;2.30;;;16.80;91.40;;;;;;5033343;28;20667;-72
2021/05/29 02:13:10;;;;;;;8.27;1.97;;;17.20;90.90;;;;;;5034373;28;20176;-73
2021/05/29 02:15:41;;;;;;;11.77;1.87;;;17.20;90.80;;;;;;5030044;28;20180;-70
2021/05/29 02:18:10;;;;;;;7.47;1.73;;;17.00;90.90;;;;;;5022753;28;20314;-71
2021/05/29 02:20:45;;;;;;;7.17;2.20;;;16.50;91.10;;;;;;5034203;28;20635;-69
2021/05/29 02:23:19;;;;;;;7.53;1.87;;;16.30;91.60;;;;;;5034405;28;20182;-70
2021/05/29 02:25:48;;;;;;;7.37;2.20;;;16.30;91.60;;;;;;5032664;28;20665;-73
2021/05/29 02:28:15;;;;;;;11.30;2.50;;;16.20;91.90;;;;;;5034023;28;20182;-74
2021/05/29 02:30:44;;;;;;;8.40;2.33;;;16.00;91.90;;;;;;5032660;28;20571;-72
2021/05/29 02:33:11;;;;;;;7.63;2.07;;;16.00;92.10;;;;;;5034004;28;20177;-75
2021/05/29 02:35:39;;;;;;;7.60;2.13;;;16.50;91.40;;;;;;5034079;28;20169;-70
2021/05/29 02:38:07;;;;;;;9.83;2.30;;;16.60;91.20;;;;;;5031275;28;20226;-70
2021/05/29 02:40:35;;;;;;;10.47;1.80;;;16.40;91.50;;;;;;5033476;28;20183;-69
2021/05/29 02:43:03;;;;;;;7.50;1.90;;;16.30;91.70;;;;;;5032228;28;20180;-70
2021/05/29 02:45:30;;;;;;;8.93;2.03;;;16.30;91.70;;;;;;5033821;28;20178;-70
2021/05/29 02:47:58;;;;;;;8.80;2.30;;;16.50;91.70;;;;;;5033635;28;20176;-70
2021/05/29 02:50:26;;;;;;;4.97;1.97;;;16.30;91.70;;;;;;5033285;28;20307;-69
2021/05/29 02:52:53;;;;;;;7.83;2.10;;;16.30;91.90;;;;;;5033452;28;20176;-70
2021/05/29 02:55:24;;;;;;;10.43;1.73;;;16.30;92.00;;;;;;5033368;28;20173;-69
2021/05/29 02:57:59;;;;;;;7.93;2.40;;;16.20;92.40;;;;;;5033353;28;20297;-72
2021/05/29 03:00:32;;;;;;;4.83;1.67;;;16.00;92.20;;;;;;5032988;28;20245;-72
2021/05/29 03:03:02;;;;;;;8.83;2.10;;;16.00;92.40;;;;;;5033225;28;20243;-72
2021/05/29 03:05:30;;;;;;;13.17;2.67;;;15.90;92.50;;;;;;5033333;28;20219;-70
2021/05/29 03:07:58;;;;;;;6.03;1.70;;;15.80;92.50;;;;;;5031578;28;20631;-72
2021/05/29 03:10:25;;;;;;;11.97;2.33;;;15.90;92.60;;;;;;5032569;28;20711;-71
2021/05/29 03:12:54;;;;;;;6.30;1.87;;;15.80;92.60;;;;;;5032846;28;20187;-73
2021/05/29 03:15:26;;;;;;;9.83;1.97;;;15.90;92.70;;;;;;5032494;28;20204;-70
2021/05/29 03:17:56;;;;;;;9.07;1.83;;;15.80;92.90;;;;;;5032837;28;20172;-71
2021/05/29 03:20:27;;;;;;;9.20;2.20;;;15.70;92.90;;;;;;5032527;28;20267;-69
2021/05/29 03:22:55;;;;;;;5.13;1.60;;;15.70;93.20;;;;;;5048283;28;20590;-73
2021/05/29 03:25:23;;;;;;;9.03;2.07;;;15.70;93.20;;;;;;5032489;28;20311;-71
2021/05/29 03:27:51;;;;;;;8.13;1.90;;;15.60;93.30;;;;;;5033089;28;20188;-73
2021/05/29 03:30:22;;;;;;;12.27;2.53;;;15.60;93.20;;;;;;5032423;28;20209;-69
2021/05/29 03:32:50;;;;;;;8.17;2.30;;;15.60;93.40;;;;;;5032796;28;20319;-70
2021/05/29 03:35:17;;;;;;;8.03;1.90;;;15.70;93.30;;;;;;5032925;28;20185;-70
2021/05/29 03:37:45;;;;;;;9.43;2.17;;;15.60;93.30;;;;;;5032496;28;20293;-68
2021/05/29 03:40:14;;;;;;;6.23;1.60;;;15.80;93.20;;;;;;5031533;28;20539;-72
2021/05/29 03:42:42;;;;;;;6.93;1.87;;;15.70;92.90;;;;;;5032509;28;20541;-73
2021/05/29 03:45:12;;;;;;;8.90;1.87;;;15.60;93.00;;;;;;5032788;28;20180;-75
2021/05/29 03:47:41;;;;;;;7.57;1.80;;;15.60;93.10;;;;;;5031824;28;20176;-71
2021/05/29 03:50:09;;;;;;;8.17;1.90;;;15.50;93.30;;;;;;5032464;28;20269;-71
2021/05/29 03:52:37;;;;;;;7.17;2.17;;;15.50;93.50;;;;;;5032354;28;20184;-73
2021/05/29 03:55:05;;;;;;;10.77;2.10;;;15.50;93.70;;;;;;5032630;28;20208;-70
2021/05/29 03:57:33;;;;;;;17.73;2.20;;;15.50;93.80;;;;;;5032812;28;20541;-70
2021/05/29 04:00:00;;;;;;;7.43;1.80;;;15.50;93.60;;;;;;5032337;28;20207;-69
2021/05/29 04:02:28;;;;;;;7.73;2.47;;;15.50;93.70;;;;;;5032212;28;20172;-71
2021/05/29 04:04:55;;;;;;;13.07;1.63;;;15.50;93.70;;;;;;5032408;28;20176;-70
2021/05/29 04:07:23;;;;;;;7.67;1.73;;;15.40;94.10;;;;;;5032331;28;20247;-73
2021/05/29 04:09:50;;;;;;;8.80;1.73;;;15.40;93.90;;;;;;5032359;28;20218;-68
2021/05/29 04:12:18;;;;;;;8.03;1.90;;;15.20;93.90;;;;;;5031896;28;20184;-73
2021/05/29 04:14:45;;;;;;;6.17;1.77;;;15.10;94.00;;;;;;5032217;28;20521;-69
2021/05/29 04:17:13;;;;;;;8.90;2.20;;;15.20;94.00;;;;;;5032211;28;20650;-71
2021/05/29 04:19:41;;;;;;;7.73;1.63;;;15.20;94.10;;;;;;5032317;28;20536;-70
2021/05/29 04:22:09;;;;;;;7.67;1.90;;;15.30;94.00;;;;;;5026016;28;20206;-71
2021/05/29 04:24:37;;;;;;;10.13;2.40;;;15.20;94.20;;;;;;5012366;28;20211;-72
2021/05/29 04:27:05;;;;;;;7.37;1.73;;;15.10;94.00;;;;;;5027123;28;20224;-70
2021/05/29 04:29:32;;;;;;;6.23;1.40;;;15.20;93.90;;;;;;5032023;28;20231;-73
2021/05/29 04:32:00;;;;;;;15.37;1.60;;;15.00;94.00;;;;;;5032239;28;20185;-76
2021/05/29 04:34:28;;;;;;;10.40;1.93;;;15.10;94.50;;;;;;5034612;28;20180;-76
2021/05/29 04:36:55;;;;;;;5.60;1.57;;;15.10;94.20;;;;;;5036341;28;20180;-69
2021/05/29 04:39:22;;;;;;;8.77;2.10;;;15.10;94.40;;;;;;5032420;28;20228;-71
2021/05/29 04:41:50;;;;;;;12.33;1.80;;;15.20;94.30;;;;;;5035728;28;20260;-69
2021/05/29 04:44:17;;;;;;;8.93;1.70;;;15.20;94.20;;;;;;5034498;28;20639;-69
2021/05/29 04:46:54;;;;;;;7.03;2.00;;;15.10;94.20;;;;;;5035941;28;20185;-68
2021/05/29 04:49:22;;;;;;;5.13;1.70;;;15.00;94.10;;;;;;5035774;28;20200;-71
2021/05/29 04:51:50;;;;;;;9.13;2.03;;;14.90;94.20;;;;;;5035875;28;20522;-71
2021/05/29 04:54:18;;;;;;;3.47;1.53;;;14.90;94.30;;;;;;5035636;28;20177;-68
2021/05/29 04:56:45;;;;;;;7.37;1.70;;;15.00;94.20;;;;;;5035657;28;20200;-70
2021/05/29 04:59:12;;;;;;;8.10;2.10;;;15.10;94.20;;;;;;5035645;28;20188;-69
2021/05/29 05:01:43;;;;;;;6.67;1.83;;;15.20;94.20;;;;;;5035311;28;20193;-71
2021/05/29 05:04:10;;;;;;;7.23;1.60;;;15.20;93.90;;;;;;5035786;28;20177;-70
2021/05/29 05:06:37;;;;;;;10.03;1.77;;;15.10;94.00;;;;;;5035563;28;20729;-70
2021/05/29 05:09:05;;;;;;;10.07;1.70;;;15.10;94.20;;;;;;5035278;28;20193;-68
2021/05/29 05:11:34;;;;;;;6.30;1.43;;;15.10;94.30;;;;;;5035649;28;20184;-69
2021/05/29 05:14:03;;;;;;;6.27;1.70;;;15.10;94.30;;;;;;5034755;28;20569;-68
2021/05/29 05:16:31;;;;;;;6.73;2.03;;;15.00;94.40;;;;;;5035190;28;20180;-70
2021/05/29 05:18:58;;;;;;;6.00;2.10;;;15.00;94.40;;;;;;5035466;28;20188;-72
2021/05/29 05:21:26;;;;;;;8.67;1.60;;;15.00;94.60;;;;;;5033512;28;20176;-73
2021/05/29 05:23:54;;;;;;;6.43;2.30;;;14.90;94.40;;;;;;5035071;28;20184;-71
2021/05/29 05:26:22;;;;;;;5.60;1.60;;;14.90;94.60;;;;;;5046240;28;20268;-71
2021/05/29 05:28:49;;;;;;;9.70;1.83;;;14.90;94.60;;;;;;5033495;28;20246;-69
2021/05/29 05:31:17;;;;;;;9.00;1.80;;;14.90;94.70;;;;;;5050399;28;20221;-68
2021/05/29 05:33:46;;;;;;;6.43;1.40;;;15.00;95.20;;;;;;5034333;28;20681;-73
2021/05/29 05:36:14;;;;;;;9.87;1.90;;;14.90;94.90;;;;;;5034900;28;20203;-69
2021/05/29 05:38:45;;;;;;;6.13;1.50;;;14.90;94.70;;;;;;5035110;28;20233;-72
2021/05/29 05:41:13;;;;;;;3.47;1.37;;;14.90;94.90;;;;;;5035258;28;20184;-71
2021/05/29 05:43:40;;;;;;;5.17;1.70;;;14.80;95.00;;;;;;5032855;28;20275;-71
2021/05/29 05:46:11;;;;;;;7.00;1.43;;;14.80;95.10;;;;;;5030767;28;20609;-71
2021/05/29 05:48:38;;;;;;;9.73;2.00;;;14.70;95.00;;;;;;5032975;28;20229;-70
2021/05/29 05:51:06;;;;;;;6.60;1.30;;;14.80;95.20;;;;;;5034001;28;20228;-70
2021/05/29 05:53:34;;;;;;;4.93;1.57;;;14.70;95.20;;;;;;5031447;28;20339;-71
2021/05/29 05:56:06;;;;;;;4.93;1.70;;;14.70;95.20;;;;;;5032558;28;20208;-70
2021/05/29 05:58:36;;;;;;;6.93;1.70;;;14.70;95.40;;;;;;5033051;28;20221;-74
2021/05/29 06:01:05;;;;;;;5.87;1.50;;;14.60;95.40;;;;;;5029226;28;20188;-73
2021/05/29 06:03:34;;;;;;;4.93;1.53;;;14.60;95.40;;;;;;5034102;28;20181;-70
2021/05/29 06:06:01;;;;;;;8.97;1.90;;;14.60;95.40;;;;;;5034494;28;20173;-70
2021/05/29 06:08:29;;;;;;;4.77;1.43;;;14.60;95.60;;;;;;5026783;28;20197;-68
2021/05/29 06:10:56;;;;;;;4.50;1.40;;;14.60;95.50;;;;;;5030747;28;20553;-69
2021/05/29 06:21:27;;;;;;;6.23;1.40;;;14.60;95.90;;;;;;5033713;28;20223;-68
2021/05/29 06:23:54;;;;;;;5.27;1.70;;;14.50;96.10;;;;;;5032349;28;20180;-69
2021/05/29 06:26:22;;;;;;;5.03;1.20;;;14.50;96.20;;;;;;5033191;28;20809;-70
2021/05/29 06:28:49;;;;;;;8.47;1.40;;;14.40;96.10;;;;;;5033042;28;20177;-73
2021/05/29 06:31:16;;;;;;;4.97;1.40;;;14.40;96.20;;;;;;5031126;28;20224;-68
2021/05/29 06:33:44;;;;;;;9.87;1.37;;;14.40;96.50;;;;;;5033949;28;20632;-70
2021/05/29 06:36:11;;;;;;;3.23;1.20;;;14.40;96.50;;;;;;5033298;28;20193;-70
2021/05/29 06:38:39;;;;;;;5.27;1.90;;;14.40;96.50;;;;;;5029684;28;20212;-69
2021/05/29 06:41:06;;;;;;;9.57;2.20;;;14.40;96.60;;;;;;5030772;28;20177;-69
2021/05/29 06:43:33;;;;;;;3.63;1.60;;;14.40;96.50;;;;;;5033594;28;20191;-70
2021/05/29 06:46:01;;;;;;;7.70;1.83;;;14.40;96.60;;;;;;5031865;28;20270;-72
2021/05/29 06:48:28;;;;;;;4.70;1.50;;;14.40;96.70;;;;;;5032431;28;20643;-70
2021/05/29 06:50:57;;;;;;;4.07;1.30;;;14.40;96.60;;;;;;5033430;28;20219;-73
2021/05/29 06:53:46;;;;;;;4.70;1.43;;;14.40;96.70;;;;;;5031376;28;20195;-68
2021/05/29 06:58:59;;;;;;;6.53;1.57;;;14.40;96.90;;;;;;5033371;28;20195;-69
2021/05/29 07:01:27;;;;;;;6.77;1.30;;;14.40;96.90;;;;;;5032610;28;20197;-72
2021/05/29 07:03:56;;;;;;;4.70;1.30;;;14.30;96.80;;;;;;5031091;28;20259;-70
2021/05/29 07:06:24;;;;;;;5.33;1.60;;;14.30;96.80;;;;;;5033183;28;20243;-68
2021/05/29 07:08:51;;;;;;;5.47;1.50;;;14.30;97.00;;;;;;5032484;28;20188;-70
2021/05/29 07:11:19;;;;;;;4.67;1.60;;;14.30;96.90;;;;;;5031647;28;20227;-69
2021/05/29 07:13:47;;;;;;;7.60;2.17;;;14.30;97.00;;;;;;5032320;28;20186;-73
2021/05/29 07:16:16;;;;;;;5.77;1.57;;;14.30;97.00;;;;;;5023352;28;20191;-72
2021/05/29 07:18:45;;;;;;;5.43;1.63;;;14.30;97.10;;;;;;5027273;28;20176;-72
2021/05/29 07:21:18;;;;;;;9.70;1.87;;;14.30;97.30;;;;;;5019643;28;20535;-72
2021/05/29 07:23:46;;;;;;;5.80;1.67;;;14.30;97.40;;;;;;5032609;28;20601;-74
2021/05/29 07:26:14;;;;;;;6.00;1.47;;;14.20;97.30;;;;;;5031038;28;20619;-75
2021/05/29 07:28:41;;;;;;;12.40;2.17;;;14.20;97.50;;;;;;5032776;28;20255;-69
2021/05/29 07:31:09;;;;;;;9.53;2.00;;;14.20;97.50;;;;;;5030918;28;21208;-69
2021/05/29 07:33:36;;;;;;;6.33;1.57;;;14.20;97.40;;;;;;5032464;28;20185;-69
2021/05/29 07:36:04;;;;;;;11.97;2.17;;;14.20;97.50;;;;;;5032573;28;20184;-74
2021/05/29 07:38:33;;;;;;;12.13;2.17;;;14.20;97.40;;;;;;5031973;28;20316;-72
2021/05/29 07:41:00;;;;;;;6.40;1.80;;;14.20;97.40;;;;;;5032570;28;20168;-70
2021/05/29 07:43:28;;;;;;;12.27;2.23;;;14.20;97.30;;;;;;5032613;28;20173;-71
2021/05/29 07:45:55;;;;;;;6.47;1.80;;;14.20;97.50;;;;;;5031493;28;20556;-71
2021/05/29 07:48:22;;;;;;;4.57;1.63;;;14.20;97.40;;;;;;5030489;28;20710;-69
2021/05/29 07:51:01;;;;;;;8.23;2.13;;;14.20;97.50;;;;;;5031843;28;20724;-68
2021/05/29 07:53:38;;;;;;;4.67;1.43;;;14.20;97.50;;;;;;5031871;28;20263;-68
2021/05/29 07:56:12;;;;;;;4.30;1.73;;;14.20;97.50;;;;;;5026356;28;20203;-70
2021/05/29 07:58:41;;;;;;;6.70;1.90;;;14.20;97.40;;;;;;5031495;28;20517;-76
2021/05/29 08:01:10;;;;;;;9.07;1.80;;;14.10;97.50;;;;;;5031425;28;20658;-72
2021/05/29 08:03:38;;;;;;;5.10;2.33;;;14.10;97.50;;;;;;5027190;28;20192;-69
2021/05/29 08:06:20;;;;;;;4.67;2.20;;;14.10;97.40;;;;;;5031998;28;20186;-69
2021/05/29 08:08:48;;;;;;;3.33;1.60;;;14.10;97.40;;;;;;5029681;28;20192;-69
2021/05/29 08:11:25;;;;;;;6.27;1.90;;;14.10;97.40;;;;;;5030115;28;20273;-71
2021/05/29 08:13:55;;;;;;;10.20;2.37;;;14.10;97.40;;;;;;5027825;28;20591;-71
2021/05/29 08:16:24;;;;;;;8.43;2.70;;;14.10;97.40;;;;;;5030764;28;20221;-69
2021/05/29 08:18:52;;;;;;;8.47;2.20;;;14.10;97.50;;;;;;5025354;28;20188;-71
2021/05/29 08:21:21;;;;;;;4.97;1.80;;;14.10;97.40;;;;;;5031865;28;20263;-69
2021/05/29 08:23:49;;;;;;;6.53;1.90;;;14.10;97.50;;;;;;5025471;28;20177;-71
2021/05/29 08:26:16;;;;;;;9.10;2.50;;;14.10;97.60;;;;;;5025269;28;20658;-69
2021/05/29 08:28:44;;;;;;;9.50;2.20;;;14.10;97.50;;;;;;5030714;28;20187;-70
2021/05/29 08:31:13;;;;;;;9.10;1.70;;;14.10;97.70;;;;;;5030289;28;20204;-70
2021/05/29 08:33:41;;;;;;;4.77;1.60;;;14.10;97.70;;;;;;5030933;28;20663;-69
2021/05/29 08:36:09;;;;;;;11.00;2.70;;;14.10;97.70;;;;;;5030872;28;20310;-71
2021/05/29 08:38:37;;;;;;;5.40;1.77;;;14.00;97.80;;;;;;5029119;28;20224;-69
2021/05/29 08:41:06;;;;;;;7.07;2.00;;;14.00;97.80;;;;;;5030767;28;20623;-72
2021/05/29 08:43:34;;;;;;;9.00;2.57;;;14.10;97.80;;;;;;5031079;28;20311;-69
2021/05/29 08:46:01;;;;;;;4.93;2.07;;;14.10;97.90;;;;;;5030715;28;20272;-70
2021/05/29 08:48:29;;;;;;;4.13;2.37;;;14.10;97.90;;;;;;5030427;28;20193;-68
2021/05/29 08:51:17;;;;;;;9.70;2.58;;;14.00;97.90;;;;;;5031180;28;20937;-69
2021/05/29 08:53:51;;;;;;;9.03;2.43;;;14.00;97.90;;;;;;5028672;28;20188;-69
2021/05/29 08:56:24;;;;;;;7.10;3.00;;;14.00;97.90;;;;;;5026332;28;20180;-70
2021/05/29 08:58:52;;;;;;;5.27;2.53;;;14.00;97.90;;;;;;5030698;28;20181;-69
2021/05/29 09:01:21;;;;;;;7.60;2.60;;;14.00;98.20;;;;;;5031228;28;20271;-68
2021/05/29 09:03:59;;;;;;;12.37;2.30;;;14.00;97.90;;;;;;5017844;28;20260;-70
2021/05/29 09:06:31;;;;;;;7.83;2.30;;;14.00;98.00;;;;;;5031612;28;20180;-70
2021/05/29 09:09:02;;;;;;;7.77;2.83;;;14.00;98.10;;;;;;5031442;28;20267;-71
2021/05/29 09:11:58;;;;;;;6.50;2.87;;;14.00;98.00;;;;;;5025565;28;20291;-72
2021/05/29 09:14:26;;;;;;;9.47;3.20;;;14.00;98.10;;;;;;5020358;28;20646;-69
2021/05/29 09:17:18;;;;;;;3.87;2.20;;;14.00;98.00;;;;;;5031845;28;20253;-69
2021/05/29 09:20:00;;;;;;;4.17;1.90;;;14.00;98.00;;;;;;5015390;28;20185;-72
2021/05/29 09:22:40;;;;;;;5.57;2.37;;;13.90;97.70;;;;;;5034803;28;20207;-68
2021/05/29 09:25:17;;;;;;;6.43;2.17;;;13.90;97.90;;;;;;5033494;28;20195;-70
2021/05/29 09:27:57;;;;;;;4.87;2.20;;;13.90;97.90;;;;;;5024982;28;20224;-69
2021/05/29 09:30:46;;;;;;;5.67;2.20;;;13.90;97.80;;;;;;5033293;28;20204;-70
2021/05/29 09:33:35;;;;;;;7.90;2.20;;;13.90;97.80;;;;;;5035021;28;20731;-69
2021/05/29 09:36:14;;;;;;;7.00;3.30;;;13.80;97.90;;;;;;5034916;28;20661;-69
2021/05/29 09:38:49;;;;;;;5.83;2.90;;;13.80;98.00;;;;;;5034801;28;20232;-68
2021/05/29 09:41:33;;;;;;;8.30;2.93;;;13.80;98.00;;;;;;5035066;28;20184;-69
2021/05/29 09:44:06;;;;;;;9.87;2.70;;;13.70;98.10;;;;;;5034965;28;20184;-71
2021/05/29 09:46:53;;;;;;;8.23;3.30;;;13.70;98.20;;;;;;5026884;28;20185;-69
2021/05/29 09:49:21;;;;;;;13.17;2.93;;;13.70;98.20;;;;;;5033230;28;20207;-73
2021/05/29 09:51:48;;;;;;;8.77;2.90;;;13.70;98.20;;;;;;5034900;28;20188;-74
2021/05/29 09:54:15;;;;;;;7.87;2.93;;;13.70;98.20;;;;;;5034316;28;20189;-70
2021/05/29 09:56:45;;;;;;;8.03;3.30;;;13.70;98.10;;;;;;5034543;28;20184;-69
2021/05/29 09:59:23;;;;;;;10.87;3.20;;;13.70;98.20;;;;;;5034545;28;20589;-69
2021/05/29 10:01:54;;;;;;;10.40;3.00;;;13.70;98.10;;;;;;5034577;28;20701;-69
2021/05/29 10:04:39;;;;;;;7.40;3.07;;;13.70;98.10;;;;;;5034243;28;20188;-71
2021/05/29 10:07:10;;;;;;;10.80;2.80;;;13.70;98.40;;;;;;5033147;28;20199;-70
2021/05/29 10:09:38;;;;;;;5.53;2.20;;;13.70;98.30;;;;;;5034330;28;20682;-71
2021/05/29 10:12:07;;;;;;;9.97;2.63;;;13.70;98.30;;;;;;5034542;28;20624;-71
2021/05/29 10:14:35;;;;;;;7.20;3.10;;;13.70;98.30;;;;;;5034333;28;20196;-74
2021/05/29 10:17:08;;;;;;;9.43;3.23;;;13.70;98.20;;;;;;5034298;28;20591;-73
2021/05/29 10:19:39;;;;;;;10.23;3.20;;;13.70;98.20;;;;;;5023940;28;20211;-69
2021/05/29 10:22:09;;;;;;;5.50;2.77;;;13.60;98.20;;;;;;5034201;28;20181;-70
2021/05/29 10:24:38;;;;;;;7.20;2.83;;;13.60;98.30;;;;;;5034058;28;20667;-75
2021/05/29 10:27:11;;;;;;;7.70;2.83;;;13.60;98.30;;;;;;5020240;28;20572;-69
2021/05/29 10:29:40;;;;;;;8.23;3.07;;;13.60;98.20;;;;;;5014274;28;20270;-71
2021/05/29 10:32:18;;;;;;;6.07;2.30;;;13.60;98.40;;;;;;5033538;28;20705;-71
2021/05/29 10:35:09;;;;;;;5.03;2.13;;;13.60;98.50;;;;;;5033824;28;20183;-72
2021/05/29 10:37:45;;;;;;;9.27;3.20;;;13.60;98.60;;;;;;5031083;28;20564;-71
2021/05/29 10:40:24;;;;;;;6.13;3.10;;;13.60;98.60;;;;;;5033588;28;20214;-70
2021/05/29 10:43:24;;;;;;;8.33;2.10;;;13.60;98.70;;;;;;5031357;28;20212;-70
2021/05/29 10:45:51;;;;;;;4.97;1.80;;;13.60;98.80;;;;;;5023364;28;20212;-69
2021/05/29 10:48:23;;;;;;;10.27;2.13;;;13.60;98.90;;;;;;5032935;28;20188;-70
2021/05/29 10:50:54;;;;;;;6.30;2.30;;;13.60;98.90;;;;;;5033622;28;20701;-70
2021/05/29 10:53:56;;;;;;;6.47;2.03;;;13.60;99.00;;;;;;5033643;28;20708;-73
2021/05/29 10:56:27;;;;;;;5.87;1.73;;;13.60;99.10;;;;;;5033445;28;20635;-70
2021/05/29 10:59:08;;;;;;;8.43;1.87;;;13.50;99.30;;;;;;5033779;28;20517;-72
2021/05/29 11:01:36;;;;;;;10.47;2.60;;;13.40;99.70;;;;;;5033855;28;20212;-70
2021/05/29 11:04:24;;;;;;;12.63;2.23;;;13.40;99.80;;;;;;5033722;28;20683;-71
2021/05/29 11:07:24;;;;;;;8.10;2.20;;;13.40;99.70;;;;;;5032209;28;20195;-69
2021/05/29 11:09:56;;;;;;;9.97;2.00;;;13.50;99.80;;;;;;5021526;28;20219;-70
2021/05/29 11:12:52;;;;;;;12.03;2.53;;;13.50;99.60;;;;;;5033170;28;20176;-69
2021/05/29 11:15:21;;;;;;;7.33;2.40;;;13.50;99.70;;;;;;5031926;28;20177;-70
2021/05/29 11:18:08;;;;;;;7.60;2.53;;;13.50;99.60;;;;;;5031895;28;20601;-70
2021/05/29 11:21:02;;;;;;;4.93;1.97;;;13.40;99.60;;;;;;5032993;28;20192;-70
2021/05/29 11:23:30;;;;;;;5.53;2.33;;;13.30;99.40;;;;;;5033052;28;20173;-71
2021/05/29 11:25:58;;;;;;;6.07;2.53;;;13.30;99.60;;;;;;5033190;28;20643;-72
2021/05/29 11:28:25;;;;;;;11.40;2.50;;;13.20;99.50;;;;;;5032667;28;20177;-70
2021/05/29 11:30:58;;;;;;;6.23;2.50;;;13.20;99.50;;;;;;5033056;28;20216;-69
2021/05/29 11:33:25;;;;;;;9.10;2.60;;;13.10;99.50;;;;;;5033119;28;20172;-70
2021/05/29 11:35:53;;;;;;;3.63;1.93;;;13.10;99.50;;;;;;5032997;28;20185;-72
2021/05/29 11:38:31;;;;;;;4.33;2.00;;;13.10;99.50;;;;;;5031956;28;20228;-71
2021/05/29 11:41:11;;;;;;;5.83;2.10;;;13.10;99.40;;;;;;5033014;28;20180;-70
2021/05/29 11:43:55;;;;;;;12.10;2.30;;;13.10;99.50;;;;;;5032032;28;20635;-71
2021/05/29 11:46:26;;;;;;;4.70;1.60;;;13.10;99.60;;;;;;5032134;28;20222;-70
2021/05/29 11:49:04;;;;;;;7.20;2.33;;;13.00;99.70;;;;;;5032557;28;20540;-72
2021/05/29 11:51:37;;;;;;;6.17;2.63;;;13.10;99.70;;;;;;5031028;28;20212;-70
2021/05/29 11:54:16;;;;;;;20.60;2.20;;;13.10;99.80;;;;;;5032344;28;20229;-70
2021/05/29 11:56:49;;;;;;;6.30;2.17;;;13.10;99.80;;;;;;5032543;28;20184;-72
2021/05/29 11:59:18;;;;;;;6.27;2.47;;;13.10;99.70;;;;;;5029991;28;20918;-69
2021/05/29 12:01:48;;;;;;;4.97;2.10;;;13.10;99.60;;;;;;5032719;28;20260;-69
2021/05/29 12:04:17;;;;;;;6.07;2.43;;;13.10;99.70;;;;;;5018322;28;20306;-71
2021/05/29 12:06:57;;;;;;;7.23;2.53;;;13.10;99.70;;;;;;5031955;28;20177;-70
2021/05/29 12:09:31;;;;;;;6.87;2.77;;;13.00;99.60;;;;;;5029365;28;20204;-69
2021/05/29 12:15:23;;;;;;;7.40;3.23;;;13.00;99.80;;;;;;5023130;28;20682;-70
2021/05/29 12:17:50;;;;;;;7.67;3.47;;;13.00;99.60;;;;;;5031474;28;20632;-70
2021/05/29 12:20:17;;;;;;;8.00;3.27;;;12.90;99.50;;;;;;5031576;28;20199;-72
2021/05/29 12:22:45;;;;;;;8.77;3.43;;;12.90;99.50;;;;;;5031611;28;20192;-72
2021/05/29 12:25:13;;;;;;;10.13;3.37;;;12.80;99.80;;;;;;5031817;28;20231;-69
2021/05/29 12:27:44;;;;;;;8.47;2.83;;;12.80;99.80;;;;;;5032005;28;20275;-70
2021/05/29 12:30:18;;;;;;;7.30;3.03;;;12.80;99.90;;;;;;5022310;28;20216;-68
2021/05/29 12:32:50;;;;;;;6.13;3.37;;;12.80;99.90;;;;;;5030989;28;20189;-70
2021/05/29 12:35:39;;;;;;;8.40;3.60;;;12.80;99.90;;;;;;5018812;28;20191;-69
2021/05/29 12:38:22;;;;;;;4.70;2.27;;;12.80;99.90;;;;;;5031331;28;20232;-69
2021/05/29 12:41:12;;;;;;;5.43;2.70;;;12.80;99.90;;;;;;5031837;28;20195;-70
2021/05/29 12:43:41;;;;;;;7.73;2.57;;;12.70;99.90;;;;;;5028074;28;20719;-71
2021/05/29 12:46:25;;;;;;;9.53;2.93;;;12.70;99.90;;;;;;5032133;28;20185;-69
2021/05/29 12:49:15;;;;;;;8.67;3.10;;;12.70;99.90;;;;;;5030505;28;20323;-69
2021/05/29 12:51:50;;;;;;;9.27;3.10;;;12.70;99.90;;;;;;5031588;28;20180;-69
2021/05/29 12:54:18;;;;;;;5.20;2.10;;;12.80;99.90;;;;;;5033611;28;20172;-71
2021/05/29 12:56:57;;;;;;;9.77;2.33;;;12.80;99.80;;;;;;5035373;28;20242;-71
2021/05/29 12:59:27;;;;;;;6.63;2.10;;;12.80;99.70;;;;;;5035209;28;20656;-72
2021/05/29 13:02:08;;;;;;;12.83;2.87;;;12.80;99.70;;;;;;5035623;28;20531;-73
2021/05/29 13:07:41;;;;;;;4.87;2.40;;;12.70;99.70;;;;;;5035467;28;20665;-73
2021/05/29 13:13:00;;;;;;;4.30;2.60;;;12.80;99.70;;;;;;5035304;28;20262;-71
2021/05/29 13:15:28;;;;;;;6.90;2.50;;;12.70;99.50;;;;;;5035133;28;20191;-69
2021/05/29 13:18:18;;;;;;;10.90;2.67;;;12.70;99.50;;;;;;5034561;28;20181;-69
2021/05/29 13:20:46;;;;;;;6.07;2.50;;;12.70;99.60;;;;;;5035538;28;20591;-72
2021/05/29 13:23:15;;;;;;;3.50;1.77;;;12.70;99.40;;;;;;5034964;28;20173;-70
2021/05/29 13:25:48;;;;;;;4.37;1.87;;;12.70;99.30;;;;;;5035215;28;20188;-69